createdAt,value
2023-02-18T00:01:30.474Z,47.24
2023-02-18T00:03:32.101Z,47.15
2023-02-18T00:05:33.784Z,48.05
2023-02-18T00:07:36.779Z,47.54
2023-02-18T00:09:39.169Z,47.68
2023-02-18T00:11:40.853Z,47.22
2023-02-18T00:13:42.506Z,47.87
2023-02-18T00:15:44.125Z,47.77
2023-02-18T00:17:45.746Z,48.20
2023-02-18T00:19:47.396Z,48.19
2023-02-18T00:21:49.100Z,48.05
2023-02-18T00:23:51.339Z,48.00
2023-02-18T00:26:01.077Z,48.09
2023-02-18T00:28:02.652Z,48.11
2023-02-18T00:30:05.924Z,48.00
2023-02-18T00:32:07.957Z,48.37
2023-02-18T00:34:11.545Z,47.63
2023-02-18T00:36:17.239Z,47.91
2023-02-18T00:38:18.818Z,48.01
2023-02-18T00:40:21.064Z,47.65
2023-02-18T00:42:22.675Z,47.69
2023-02-18T00:44:24.317Z,47.92
2023-02-18T00:46:26.621Z,48.95
2023-02-18T00:48:28.378Z,49.32
2023-02-18T00:50:29.936Z,48.90
2023-02-18T00:52:31.539Z,49.18
2023-02-18T00:54:33.110Z,48.76
2023-02-18T00:56:35.131Z,49.27
2023-02-18T00:58:37.263Z,49.32
2023-02-18T01:00:38.877Z,49.61
2023-02-18T01:02:40.490Z,50.28
2023-02-18T01:04:42.093Z,49.43
2023-02-18T01:06:47.872Z,49.36
2023-02-18T01:08:49.977Z,49.39
2023-02-18T01:10:54.879Z,49.09
2023-02-18T01:12:56.482Z,48.80
2023-02-18T01:14:58.101Z,49.13
2023-02-18T01:16:59.690Z,48.80
2023-02-18T01:19:01.381Z,48.75
2023-02-18T01:21:03.200Z,48.52
2023-02-18T01:23:05.019Z,48.93
2023-02-18T01:25:07.205Z,49.32
2023-02-18T01:27:08.766Z,48.92
2023-02-18T01:29:10.343Z,49.15
2023-02-18T01:31:13.401Z,49.72
2023-02-18T01:33:15.082Z,48.98
2023-02-18T01:35:18.730Z,49.56
2023-02-18T01:37:20.314Z,49.34
2023-02-18T01:39:21.940Z,48.98
2023-02-18T01:41:23.921Z,49.17
2023-02-18T01:43:25.609Z,48.87
2023-02-18T01:45:38.968Z,48.86
2023-02-18T01:47:40.667Z,48.90
2023-02-18T01:49:44.877Z,49.66
2023-02-18T01:52:14.777Z,50.06
2023-02-18T01:54:22.002Z,50.08
2023-02-18T01:56:31.231Z,50.18
2023-02-18T01:58:33.193Z,49.53
2023-02-18T02:00:37.073Z,50.13
2023-02-18T02:02:39.664Z,49.89
2023-02-18T02:04:41.841Z,49.19
2023-02-18T02:06:43.455Z,49.78
2023-02-18T02:08:46.012Z,49.07
2023-02-18T02:11:03.299Z,49.11
2023-02-18T02:13:55.724Z,48.83
2023-02-18T02:16:11.353Z,49.11
2023-02-18T02:18:25.280Z,48.15
2023-02-18T02:20:51.272Z,48.62
2023-02-18T02:23:08.248Z,49.03
2023-02-18T02:25:15.594Z,49.09
2023-02-18T02:27:22.895Z,49.32
2023-02-18T02:29:33.344Z,49.52
2023-02-18T02:31:53.634Z,49.94
2023-02-18T02:34:02.759Z,50.00
2023-02-18T02:36:39.030Z,49.99
2023-02-18T02:38:56.883Z,50.78
2023-02-18T02:41:17.528Z,50.62
2023-02-18T02:43:24.536Z,50.73
2023-02-18T02:45:47.162Z,50.75
2023-02-18T02:47:57.079Z,50.09
2023-02-18T02:50:16.903Z,50.30
2023-02-18T02:52:18.474Z,50.06
2023-02-18T02:54:24.411Z,49.91
2023-02-18T02:56:26.117Z,49.61
2023-02-18T02:58:27.764Z,49.73
2023-02-18T03:00:44.374Z,49.38
2023-02-18T03:02:55.308Z,50.14
2023-02-18T03:05:12.167Z,50.25
2023-02-18T03:07:19.927Z,50.60
2023-02-18T03:09:48.982Z,50.43
2023-02-18T03:12:17.582Z,50.14
2023-02-18T03:14:33.612Z,50.16
2023-02-18T03:16:48.726Z,50.39
2023-02-18T03:19:01.392Z,50.49
2023-02-18T03:21:07.487Z,50.25
2023-02-18T03:23:12.529Z,50.27
2023-02-18T03:25:15.097Z,50.44
2023-02-18T03:27:21.887Z,50.42
2023-02-18T03:29:23.637Z,50.03
2023-02-18T03:31:27.816Z,51.56
2023-02-18T03:33:35.048Z,51.59
2023-02-18T03:35:37.626Z,51.71
2023-02-18T03:37:43.245Z,51.65
2023-02-18T03:39:48.584Z,52.92
2023-02-18T03:41:50.277Z,52.73
2023-02-18T03:44:00.594Z,52.38
2023-02-18T03:46:03.578Z,52.35
2023-02-18T03:48:05.612Z,51.88
2023-02-18T03:50:08.082Z,51.52
2023-02-18T03:52:09.821Z,51.91
2023-02-18T03:54:11.654Z,51.92
2023-02-18T03:56:13.431Z,51.70
2023-02-18T03:58:15.217Z,51.68
2023-02-18T04:00:17.163Z,51.83
2023-02-18T04:02:19.004Z,51.33
2023-02-18T04:04:20.698Z,51.42
2023-02-18T04:06:23.487Z,52.22
2023-02-18T04:08:25.466Z,52.45
2023-02-18T04:10:27.109Z,51.62
2023-02-18T04:12:28.820Z,51.30
2023-02-18T04:14:30.431Z,51.39
2023-02-18T04:16:32.238Z,50.91
2023-02-18T04:18:33.913Z,51.31
2023-02-18T04:20:35.587Z,51.20
2023-02-18T04:22:37.226Z,51.44
2023-02-18T04:24:38.912Z,51.10
2023-02-18T04:26:40.540Z,50.89
2023-02-18T04:28:42.167Z,51.07
2023-02-18T04:30:44.621Z,51.38
2023-02-18T04:32:46.418Z,51.21
2023-02-18T04:34:48.027Z,51.49
2023-02-18T04:36:49.650Z,51.29
2023-02-18T04:38:51.298Z,51.17
2023-02-18T04:40:53.043Z,51.01
2023-02-18T04:42:54.670Z,51.44
2023-02-18T04:45:04.203Z,51.40
2023-02-18T04:47:06.804Z,51.95
2023-02-18T04:49:08.504Z,51.23
2023-02-18T04:51:10.316Z,52.35
2023-02-18T04:53:11.909Z,51.84
2023-02-18T04:55:13.672Z,52.10
2023-02-18T04:57:15.318Z,51.77
2023-02-18T04:59:17.073Z,52.15
2023-02-18T05:01:18.688Z,52.34
2023-02-18T05:03:20.432Z,52.56
2023-02-18T05:05:22.318Z,53.21
2023-02-18T05:07:23.920Z,54.15
2023-02-18T05:09:25.691Z,54.49
2023-02-18T05:11:27.320Z,54.32
2023-02-18T05:13:28.925Z,53.94
2023-02-18T05:15:30.714Z,53.67
2023-02-18T05:17:32.543Z,53.45
2023-02-18T05:19:34.160Z,52.79
2023-02-18T05:21:35.757Z,52.85
2023-02-18T05:23:37.308Z,52.63
2023-02-18T05:25:38.895Z,52.05
2023-02-18T05:27:40.537Z,52.31
2023-02-18T05:29:42.167Z,52.17
2023-02-18T05:31:43.885Z,52.95
2023-02-18T05:33:45.532Z,52.41
2023-02-18T05:35:47.172Z,52.45
2023-02-18T05:37:48.785Z,53.02
2023-02-18T05:39:50.394Z,52.25
2023-02-18T05:41:52.191Z,51.68
2023-02-18T05:44:12.030Z,51.66
2023-02-18T05:46:13.634Z,51.69
2023-02-18T05:48:15.289Z,52.13
2023-02-18T05:50:17.232Z,51.29
2023-02-18T05:52:18.894Z,51.58
2023-02-18T05:54:20.612Z,51.45
2023-02-18T05:56:22.286Z,51.46
2023-02-18T05:58:23.897Z,51.54
2023-02-18T06:00:25.646Z,51.85
2023-02-18T06:02:27.188Z,52.05
2023-02-18T06:04:28.789Z,52.23
2023-02-18T06:06:30.445Z,52.24
2023-02-18T06:08:31.996Z,52.16
2023-02-18T06:10:33.566Z,52.15
2023-02-18T06:12:35.180Z,51.88
2023-02-18T06:14:36.809Z,51.25
2023-02-18T06:16:38.516Z,51.25
2023-02-18T06:18:40.198Z,51.27
2023-02-18T06:20:41.839Z,51.04
2023-02-18T06:22:43.472Z,50.18
2023-02-18T06:24:45.064Z,50.64
2023-02-18T06:26:46.670Z,50.05
2023-02-18T06:28:48.271Z,50.10
2023-02-18T06:30:50.417Z,49.83
2023-02-18T06:32:51.998Z,50.45
2023-02-18T06:34:53.686Z,50.17
2023-02-18T06:36:55.273Z,50.20
2023-02-18T06:38:57.633Z,50.39
2023-02-18T06:40:59.274Z,50.46
2023-02-18T06:43:00.836Z,49.92
2023-02-18T06:45:06.802Z,50.01
2023-02-18T06:47:08.417Z,49.79
2023-02-18T06:49:13.145Z,50.05
2023-02-18T06:51:16.247Z,50.20
2023-02-18T06:53:18.155Z,49.68
2023-02-18T06:55:19.822Z,49.49
2023-02-18T06:57:21.413Z,49.16
2023-02-18T06:59:23.202Z,48.77
2023-02-18T07:01:24.807Z,48.76
2023-02-18T07:03:26.524Z,48.70
2023-02-18T07:05:28.503Z,48.68
2023-02-18T07:07:30.182Z,48.41
2023-02-18T07:09:31.892Z,48.31
2023-02-18T07:11:33.675Z,47.95
2023-02-18T07:13:35.361Z,47.83
2023-02-18T07:15:37.008Z,47.81
2023-02-18T07:17:39.208Z,47.75
2023-02-18T07:19:40.925Z,47.91
2023-02-18T07:21:43.088Z,47.84
2023-02-18T07:23:44.662Z,48.62
2023-02-18T07:25:46.206Z,48.96
2023-02-18T07:27:47.806Z,48.89
2023-02-18T07:29:49.640Z,48.83
2023-02-18T07:31:51.546Z,48.34
2023-02-18T07:33:53.235Z,49.27
2023-02-18T07:35:57.008Z,49.75
2023-02-18T07:37:58.682Z,49.78
2023-02-18T07:40:00.330Z,49.34
2023-02-18T07:42:05.031Z,48.56
2023-02-18T07:44:06.628Z,48.58
2023-02-18T07:46:08.694Z,47.88
2023-02-18T07:48:10.680Z,47.54
2023-02-18T07:50:12.331Z,47.24
2023-02-18T07:52:15.060Z,46.63
2023-02-18T07:54:18.326Z,46.09
2023-02-18T07:56:19.987Z,46.65
2023-02-18T07:58:27.800Z,46.39
2023-02-18T08:00:29.424Z,46.35
2023-02-18T08:02:31.070Z,46.24
2023-02-18T08:04:32.878Z,46.00
2023-02-18T08:06:54.125Z,45.51
2023-02-18T08:08:55.719Z,44.98
2023-02-18T08:11:02.727Z,45.18
2023-02-18T08:13:08.935Z,45.20
2023-02-18T08:15:10.476Z,44.88
2023-02-18T08:17:12.091Z,44.51
2023-02-18T08:19:14.045Z,44.93
2023-02-18T08:21:16.926Z,43.78
2023-02-18T08:23:22.779Z,43.84
2023-02-18T08:25:29.759Z,44.18
2023-02-18T08:27:31.835Z,43.70
2023-02-18T08:29:33.418Z,43.62
2023-02-18T08:31:35.153Z,43.46
2023-02-18T08:33:36.844Z,43.26
2023-02-18T08:35:38.509Z,43.32
2023-02-18T08:37:53.021Z,43.14
2023-02-18T08:39:55.954Z,43.32
2023-02-18T08:41:57.549Z,43.52
2023-02-18T08:43:59.188Z,43.51
2023-02-18T08:46:00.969Z,43.70
2023-02-18T08:48:18.286Z,44.05
2023-02-18T08:50:26.121Z,43.73
2023-02-18T08:52:28.044Z,43.50
2023-02-18T08:54:29.734Z,43.21
2023-02-18T08:56:32.616Z,43.60
2023-02-18T08:58:37.271Z,43.43
2023-02-18T09:00:40.163Z,42.96
2023-02-18T09:02:41.803Z,43.10
2023-02-18T09:04:43.769Z,42.95
2023-02-18T09:06:46.863Z,42.84
2023-02-18T09:08:48.539Z,43.22
2023-02-18T09:10:50.144Z,43.63
2023-02-18T09:12:51.856Z,42.56
2023-02-18T09:14:53.491Z,42.44
2023-02-18T09:16:57.771Z,42.00
2023-02-18T09:18:59.525Z,42.19
2023-02-18T09:21:01.159Z,42.40
2023-02-18T09:23:03.774Z,42.14
2023-02-18T09:25:05.655Z,41.46
2023-02-18T09:27:08.764Z,41.49
2023-02-18T09:29:12.145Z,41.07
2023-02-18T09:31:16.458Z,40.70
2023-02-18T09:33:18.692Z,39.91
2023-02-18T09:35:20.568Z,40.03
2023-02-18T09:37:22.246Z,39.81
2023-02-18T09:39:23.942Z,39.43
2023-02-18T09:41:41.792Z,39.54
2023-02-18T09:43:46.525Z,39.04
2023-02-18T09:45:48.412Z,39.31
2023-02-18T09:47:50.946Z,38.60
2023-02-18T09:49:55.344Z,38.16
2023-02-18T09:51:58.070Z,38.18
2023-02-18T09:53:59.872Z,38.83
2023-02-18T09:56:01.902Z,39.33
2023-02-18T09:58:11.422Z,39.33
2023-02-18T10:00:17.237Z,39.43
2023-02-18T10:02:20.588Z,39.98
2023-02-18T10:04:32.187Z,39.33
2023-02-18T10:06:34.944Z,38.38
2023-02-18T10:08:51.120Z,37.82
2023-02-18T10:10:52.804Z,37.55
2023-02-18T10:12:55.800Z,37.29
2023-02-18T10:15:00.109Z,36.46
2023-02-18T10:17:02.152Z,36.55
2023-02-18T10:19:19.188Z,35.88
2023-02-18T10:21:30.597Z,35.70
2023-02-18T10:23:35.279Z,35.11
2023-02-18T10:25:39.669Z,34.32
2023-02-18T10:27:41.293Z,34.56
2023-02-18T10:29:42.908Z,34.78
2023-02-18T10:31:50.363Z,34.29
2023-02-18T10:34:15.389Z,34.13
2023-02-18T10:36:23.006Z,34.17
2023-02-18T10:39:02.229Z,34.05
2023-02-18T10:41:07.257Z,33.69
2023-02-18T10:43:52.856Z,33.83
2023-02-18T10:46:06.441Z,33.66
2023-02-18T10:48:33.648Z,33.47
2023-02-18T10:50:45.530Z,33.19
2023-02-18T10:52:49.604Z,33.13
2023-02-18T10:55:26.784Z,32.84
2023-02-18T10:57:28.506Z,32.97
2023-02-18T10:59:33.578Z,32.68
2023-02-18T11:01:35.382Z,32.56
2023-02-18T11:03:46.406Z,32.34
2023-02-18T11:05:51.095Z,32.52
2023-02-18T11:07:56.861Z,32.51
2023-02-18T11:10:19.962Z,32.51
2023-02-18T11:12:43.488Z,32.18
2023-02-18T11:14:51.481Z,32.18
2023-02-18T11:16:56.501Z,31.72
2023-02-18T11:19:00.316Z,31.62
2023-02-18T11:21:03.773Z,30.88
2023-02-18T11:23:08.450Z,30.66
2023-02-18T11:25:24.321Z,29.69
2023-02-18T11:27:36.244Z,29.01
2023-02-18T11:29:38.864Z,29.19
2023-02-18T11:31:43.632Z,28.80
2023-02-18T11:33:52.176Z,28.44
2023-02-18T11:35:58.297Z,28.08
2023-02-18T11:38:03.329Z,28.43
2023-02-18T11:40:05.671Z,28.01
2023-02-18T11:42:07.478Z,27.88
2023-02-18T11:44:23.580Z,27.68
2023-02-18T11:46:27.720Z,28.09
2023-02-18T11:48:29.508Z,27.94
2023-02-18T11:50:33.404Z,27.66
2023-02-18T11:52:47.015Z,27.62
2023-02-18T11:55:01.143Z,27.52
2023-02-18T11:57:06.537Z,27.84
2023-02-18T11:59:10.583Z,28.15
2023-02-18T12:01:24.924Z,28.46
2023-02-18T12:03:42.544Z,29.07
2023-02-18T12:05:45.699Z,29.00
2023-02-18T12:08:09.836Z,29.22
2023-02-18T12:10:31.154Z,29.20
2023-02-18T12:12:41.098Z,29.00
2023-02-18T12:14:43.928Z,28.93
2023-02-18T12:16:51.439Z,28.80
2023-02-18T12:19:11.081Z,28.60
2023-02-18T12:21:42.245Z,28.67
2023-02-18T12:23:53.078Z,28.65
2023-02-18T12:25:57.046Z,28.76
2023-02-18T12:28:13.879Z,28.86
2023-02-18T12:30:39.931Z,28.63
2023-02-18T12:32:55.620Z,28.75
2023-02-18T12:35:28.101Z,28.47
2023-02-18T12:37:54.202Z,28.32
2023-02-18T12:40:01.494Z,28.63
2023-02-18T12:42:18.203Z,28.43
2023-02-18T12:44:28.502Z,28.57
2023-02-18T12:46:40.031Z,28.78
2023-02-18T12:49:07.949Z,28.41
2023-02-18T12:51:30.457Z,28.84
2023-02-18T12:53:38.333Z,28.74
2023-02-18T12:55:49.048Z,28.75
2023-02-18T12:57:56.537Z,28.81
2023-02-18T13:00:19.627Z,28.88
2023-02-18T13:02:54.714Z,28.96
2023-02-18T13:05:32.417Z,29.03
2023-02-18T13:07:44.260Z,29.12
2023-02-18T13:09:45.830Z,29.07
2023-02-18T13:12:41.508Z,29.11
2023-02-18T13:14:47.562Z,28.99
2023-02-18T13:16:52.207Z,29.28
2023-02-18T13:18:53.838Z,29.38
2023-02-18T13:21:01.737Z,29.46
2023-02-18T13:23:04.331Z,29.39
2023-02-18T13:25:07.183Z,29.54
2023-02-18T13:27:33.800Z,29.73
2023-02-18T13:29:46.829Z,29.89
2023-02-18T13:32:16.953Z,29.98
2023-02-18T13:34:29.877Z,30.08
2023-02-18T13:36:37.274Z,30.48
2023-02-18T13:38:58.445Z,30.34
2023-02-18T13:41:00.417Z,30.52
2023-02-18T13:43:32.285Z,32.70
2023-02-18T13:45:34.331Z,32.86
2023-02-18T13:47:42.672Z,33.57
2023-02-18T13:49:44.292Z,33.40
2023-02-18T13:51:48.780Z,33.60
2023-02-18T13:53:52.753Z,33.22
2023-02-18T13:56:28.414Z,33.27
2023-02-18T13:58:43.433Z,32.23
2023-02-18T14:01:05.570Z,32.54
2023-02-18T14:03:45.073Z,34.04
2023-02-18T14:05:46.753Z,34.54
2023-02-18T14:08:17.726Z,34.82
2023-02-18T14:10:19.356Z,35.03
2023-02-18T14:12:42.252Z,35.16
2023-02-18T14:14:44.104Z,35.84
2023-02-18T14:17:19.859Z,35.82
2023-02-18T14:19:29.007Z,36.24
2023-02-18T14:21:41.191Z,36.37
2023-02-18T14:23:51.790Z,36.23
2023-02-18T14:26:14.957Z,36.75
2023-02-18T14:28:38.010Z,36.52
2023-02-18T14:30:42.348Z,36.54
2023-02-18T14:32:45.455Z,36.67
2023-02-18T14:35:03.519Z,36.95
2023-02-18T14:37:30.517Z,37.03
2023-02-18T14:39:54.081Z,37.07
2023-02-18T14:42:04.769Z,36.89
2023-02-18T14:44:09.477Z,37.36
2023-02-18T14:46:24.660Z,37.53
2023-02-18T14:48:37.962Z,37.80
2023-02-18T14:50:43.054Z,37.71
2023-02-18T14:52:48.854Z,37.64
2023-02-18T14:54:50.879Z,37.42
2023-02-18T14:57:04.416Z,37.29
2023-02-18T14:59:06.657Z,37.58
2023-02-18T15:01:19.664Z,37.41
2023-02-18T15:03:22.486Z,37.82
2023-02-18T15:05:26.694Z,38.19
2023-02-18T15:07:28.362Z,37.89
2023-02-18T15:09:30.417Z,38.01
2023-02-18T15:11:39.193Z,37.94
2023-02-18T15:13:45.769Z,38.30
2023-02-18T15:15:51.365Z,38.44
2023-02-18T15:17:53.034Z,38.37
2023-02-18T15:20:00.070Z,38.41
2023-02-18T15:22:01.787Z,38.87
2023-02-18T15:24:19.002Z,39.08
2023-02-18T15:26:21.308Z,38.93
2023-02-18T15:28:26.889Z,39.17
2023-02-18T15:30:31.229Z,39.17
2023-02-18T15:32:33.191Z,39.63
2023-02-18T15:34:37.852Z,39.78
2023-02-18T15:36:39.468Z,40.36
2023-02-18T15:38:44.573Z,40.63
2023-02-18T15:40:53.090Z,40.83
2023-02-18T15:42:58.125Z,41.17
2023-02-18T15:45:20.641Z,41.43
2023-02-18T15:47:22.832Z,41.30
2023-02-18T15:49:24.790Z,41.82
2023-02-18T15:51:30.280Z,41.50
2023-02-18T15:53:37.114Z,41.62
2023-02-18T15:55:40.414Z,41.61
2023-02-18T15:57:42.270Z,42.01
2023-02-18T15:59:47.466Z,41.86
2023-02-18T16:01:51.378Z,42.19
2023-02-18T16:03:54.559Z,42.00
2023-02-18T16:06:19.179Z,42.38
2023-02-18T16:08:27.722Z,42.60
2023-02-18T16:10:33.244Z,42.32
2023-02-18T16:12:37.410Z,42.51
2023-02-18T16:14:49.535Z,42.66
2023-02-18T16:17:29.344Z,42.80
2023-02-18T16:19:32.266Z,42.62
2023-02-18T16:21:39.915Z,42.58
2023-02-18T16:23:44.066Z,42.66
2023-02-18T16:25:48.760Z,42.68
2023-02-18T16:28:03.163Z,42.65
2023-02-18T16:30:28.151Z,42.81
2023-02-18T16:32:30.046Z,43.18
2023-02-18T16:34:31.937Z,43.14
2023-02-18T16:36:33.865Z,42.99
2023-02-18T16:38:36.058Z,42.81
2023-02-18T16:40:43.078Z,42.40
2023-02-18T16:42:44.671Z,42.37
2023-02-18T16:44:48.158Z,41.66
2023-02-18T16:46:49.826Z,41.18
2023-02-18T16:48:55.043Z,41.25
2023-02-18T16:50:57.087Z,41.18
2023-02-18T16:52:59.288Z,41.25
2023-02-18T16:55:00.914Z,41.60
2023-02-18T16:57:02.555Z,41.11
2023-02-18T16:59:04.746Z,41.39
2023-02-18T17:01:06.560Z,41.63
2023-02-18T17:03:08.419Z,41.79
2023-02-18T17:05:26.061Z,41.40
2023-02-18T17:07:29.892Z,41.90
2023-02-18T17:09:31.467Z,42.05
2023-02-18T17:11:34.430Z,41.86
2023-02-18T17:13:36.078Z,42.04
2023-02-18T17:15:38.099Z,42.15
2023-02-18T17:17:39.791Z,42.48
2023-02-18T17:19:41.410Z,42.09
2023-02-18T17:21:43.544Z,42.18
2023-02-18T17:23:45.647Z,41.89
2023-02-18T17:25:49.057Z,42.11
2023-02-18T17:27:50.791Z,41.89
2023-02-18T17:29:52.406Z,42.28
2023-02-18T17:31:56.931Z,42.13
2023-02-18T17:34:01.276Z,42.34
2023-02-18T17:36:02.961Z,42.54
2023-02-18T17:38:16.041Z,42.88
2023-02-18T17:40:20.130Z,43.40
2023-02-18T17:42:21.735Z,43.38
2023-02-18T17:44:24.717Z,43.47
2023-02-18T17:46:26.336Z,43.86
2023-02-18T17:48:28.484Z,44.14
2023-02-18T17:50:31.686Z,43.99
2023-02-18T17:52:33.334Z,43.78
2023-02-18T17:54:34.931Z,43.77
2023-02-18T17:56:36.776Z,43.93
2023-02-18T17:58:38.334Z,43.79
2023-02-18T18:00:42.463Z,43.75
2023-02-18T18:02:44.316Z,43.39
2023-02-18T18:04:45.909Z,43.42
2023-02-18T18:06:47.661Z,43.50
2023-02-18T18:08:49.260Z,43.31
2023-02-18T18:10:55.732Z,43.27
2023-02-18T18:12:58.455Z,43.60
2023-02-18T18:15:01.805Z,43.64
2023-02-18T18:17:03.394Z,43.89
2023-02-18T18:19:05.059Z,43.66
2023-02-18T18:21:07.295Z,43.62
2023-02-18T18:23:11.390Z,43.31
2023-02-18T18:25:19.461Z,43.16
2023-02-18T18:27:21.027Z,43.25
2023-02-18T18:29:22.599Z,43.48
2023-02-18T18:31:24.448Z,43.19
2023-02-18T18:33:36.545Z,43.26
2023-02-18T18:35:38.778Z,43.30
2023-02-18T18:37:40.350Z,43.44
2023-02-18T18:39:41.936Z,43.20
2023-02-18T18:41:43.578Z,43.22
2023-02-18T18:43:45.503Z,43.33
2023-02-18T18:45:47.747Z,42.95
2023-02-18T18:47:50.281Z,43.01
2023-02-18T18:49:51.951Z,43.16
2023-02-18T18:51:55.313Z,42.89
2023-02-18T18:53:58.486Z,43.38
2023-02-18T18:56:05.889Z,43.34
2023-02-18T18:58:07.504Z,43.49
2023-02-18T19:00:10.048Z,43.25
2023-02-18T19:02:16.107Z,43.63
2023-02-18T19:04:18.852Z,43.63
2023-02-18T19:06:21.219Z,43.60
2023-02-18T19:08:23.221Z,43.96
2023-02-18T19:10:39.486Z,43.79
2023-02-18T19:12:41.088Z,43.46
2023-02-18T19:14:42.662Z,43.70
2023-02-18T19:16:44.307Z,44.06
2023-02-18T19:18:46.403Z,43.99
2023-02-18T19:20:48.657Z,44.17
2023-02-18T19:22:50.804Z,44.73
2023-02-18T19:24:52.440Z,44.93
2023-02-18T19:26:54.042Z,45.37
2023-02-18T19:28:55.684Z,45.10
2023-02-18T19:30:57.442Z,45.05
2023-02-18T19:33:00.554Z,45.23
2023-02-18T19:35:02.112Z,45.56
2023-02-18T19:37:03.716Z,45.33
2023-02-18T19:39:05.308Z,45.36
2023-02-18T19:41:12.508Z,45.01
2023-02-18T19:43:14.591Z,44.94
2023-02-18T19:45:17.208Z,44.63
2023-02-18T19:47:18.779Z,44.77
2023-02-18T19:49:20.344Z,44.52
2023-02-18T19:51:21.996Z,44.52
2023-02-18T19:53:23.574Z,44.81
2023-02-18T19:55:25.510Z,44.59
2023-02-18T19:57:27.308Z,45.08
2023-02-18T19:59:29.844Z,45.15
2023-02-18T20:01:31.638Z,45.23
2023-02-18T20:03:33.495Z,44.93
2023-02-18T20:05:38.233Z,45.13
2023-02-18T20:07:41.688Z,44.97
2023-02-18T20:09:43.653Z,44.96
2023-02-18T20:11:45.351Z,44.78
2023-02-18T20:13:48.374Z,45.49
2023-02-18T20:15:49.979Z,45.31
2023-02-18T20:17:51.595Z,45.83
2023-02-18T20:19:53.292Z,46.90
2023-02-18T20:21:56.124Z,47.53
2023-02-18T20:23:58.327Z,47.36
2023-02-18T20:26:04.110Z,47.19
2023-02-18T20:28:06.029Z,47.23
2023-02-18T20:30:08.871Z,46.68
2023-02-18T20:32:10.557Z,47.50
2023-02-18T20:34:12.570Z,47.31
2023-02-18T20:36:14.468Z,47.37
2023-02-18T20:38:18.009Z,47.05
2023-02-18T20:40:20.384Z,46.96
2023-02-18T20:42:22.315Z,46.79
2023-02-18T20:44:25.816Z,46.92
2023-02-18T20:46:27.518Z,46.59
2023-02-18T20:48:30.166Z,46.75
2023-02-18T20:50:31.786Z,47.03
2023-02-18T20:52:34.741Z,46.66
2023-02-18T20:54:36.888Z,46.38
2023-02-18T20:56:39.241Z,46.97
2023-02-18T20:58:41.532Z,46.61
2023-02-18T21:00:43.230Z,46.62
2023-02-18T21:02:44.889Z,46.80
2023-02-18T21:04:46.601Z,46.84
2023-02-18T21:06:50.573Z,46.81
2023-02-18T21:08:53.634Z,46.50
2023-02-18T21:10:56.844Z,46.94
2023-02-18T21:12:58.562Z,46.96
2023-02-18T21:15:00.252Z,47.46
2023-02-18T21:17:03.671Z,47.29
2023-02-18T21:19:07.367Z,47.45
2023-02-18T21:21:10.289Z,46.95
2023-02-18T21:23:12.324Z,47.05
2023-02-18T21:25:14.039Z,47.42
2023-02-18T21:27:15.562Z,47.53
2023-02-18T21:29:17.433Z,47.50
2023-02-18T21:31:43.497Z,47.92
2023-02-18T21:33:45.254Z,47.62
2023-02-18T21:35:49.024Z,48.21
2023-02-18T21:37:52.162Z,48.15
2023-02-18T21:39:53.813Z,48.05
2023-02-18T21:41:57.177Z,48.00
2023-02-18T21:43:58.907Z,47.82
2023-02-18T21:46:19.644Z,48.10
2023-02-18T21:48:39.702Z,48.31
2023-02-18T21:50:41.247Z,48.47
2023-02-18T21:52:43.293Z,48.13
2023-02-18T21:54:45.050Z,48.43
2023-02-18T21:56:46.718Z,48.46
2023-02-18T21:58:48.346Z,48.24
2023-02-18T22:00:57.121Z,47.88
2023-02-18T22:02:58.734Z,47.95
2023-02-18T22:05:02.380Z,48.46
2023-02-18T22:07:04.244Z,48.43
2023-02-18T22:09:06.436Z,47.69
2023-02-18T22:11:08.314Z,48.15
2023-02-18T22:13:10.158Z,47.93
2023-02-18T22:15:11.872Z,48.14
2023-02-18T22:17:14.404Z,48.20
2023-02-18T22:19:16.035Z,48.41
2023-02-18T22:21:19.194Z,47.94
2023-02-18T22:23:21.813Z,48.18
2023-02-18T22:25:23.393Z,48.45
2023-02-18T22:27:27.105Z,48.07
2023-02-18T22:29:29.640Z,48.24
2023-02-18T22:31:32.657Z,47.98
2023-02-18T22:33:34.983Z,47.97
2023-02-18T22:35:36.686Z,48.07
2023-02-18T22:37:38.245Z,47.98
2023-02-18T22:39:39.919Z,48.19
2023-02-18T22:41:42.199Z,48.39
2023-02-18T22:43:44.397Z,48.72
2023-02-18T22:45:46.174Z,48.28
2023-02-18T22:47:47.798Z,49.46
2023-02-18T22:49:49.490Z,49.70
2023-02-18T22:51:53.206Z,48.87
2023-02-18T22:53:55.892Z,49.84
2023-02-18T22:56:02.142Z,49.65
2023-02-18T22:58:03.745Z,49.26
2023-02-18T23:00:10.686Z,49.75
2023-02-18T23:02:12.322Z,49.94
2023-02-18T23:04:15.753Z,50.54
2023-02-18T23:06:18.283Z,49.65
2023-02-18T23:08:20.110Z,49.69
2023-02-18T23:10:21.665Z,49.97
2023-02-18T23:12:23.364Z,49.50
2023-02-18T23:14:28.112Z,49.15
2023-02-18T23:16:29.720Z,49.27
2023-02-18T23:18:33.037Z,50.10
2023-02-18T23:20:54.381Z,49.95
2023-02-18T23:22:55.989Z,49.52
2023-02-18T23:24:58.065Z,49.80
2023-02-18T23:26:59.711Z,49.25
2023-02-18T23:29:01.332Z,49.98
2023-02-18T23:31:03.010Z,49.86
2023-02-18T23:33:04.697Z,50.12
2023-02-18T23:35:06.494Z,50.44
2023-02-18T23:37:08.191Z,50.36
2023-02-18T23:39:11.978Z,50.70
2023-02-18T23:41:13.679Z,51.31
2023-02-18T23:43:15.556Z,51.49
2023-02-18T23:45:17.133Z,51.23
2023-02-18T23:47:18.758Z,50.82
2023-02-18T23:49:25.183Z,50.63
2023-02-18T23:51:26.877Z,50.90
2023-02-18T23:53:29.828Z,51.22
2023-02-18T23:55:31.448Z,51.21
2023-02-18T23:57:33.166Z,51.57
2023-02-18T23:59:35.872Z,51.07
